Time;durP1;ratioP1;P1;durP2;ratioP2;P2;SDS_P1;SDS_P2;PMS_P1;PMS_P2;Temp;Humidity;BMP_temperature;BMP_pressure;BME280_temperature;BME280_humidity;BME280_pressure;Samples;Min_cycle;Max_cycle;Signal;HPM_P1;HPM_P2
2023/05/28 00:00:12;;;;;;;27.92;25.48;;;17.10;99.90;;;;;;5249559;28;20017;-71
2023/05/28 00:02:43;;;;;;;25.55;23.15;;;17.10;99.90;;;;;;5249697;28;20032;-70
2023/05/28 00:05:14;;;;;;;25.42;23.08;;;17.10;99.90;;;;;;5249614;28;20028;-71
2023/05/28 00:07:45;;;;;;;24.60;22.40;;;17.00;99.90;;;;;;5249646;28;20021;-70
2023/05/28 00:10:16;;;;;;;24.88;22.63;;;17.10;99.90;;;;;;5249552;28;20131;-71
2023/05/28 00:12:47;;;;;;;26.30;24.05;;;17.20;99.90;;;;;;5249484;28;20020;-71
2023/05/28 00:15:18;;;;;;;27.38;24.77;;;17.20;99.90;;;;;;5249505;28;20032;-71
2023/05/28 00:17:52;;;;;;;26.83;24.45;;;16.90;99.90;;;;;;5249225;28;20028;-71
2023/05/28 00:20:25;;;;;;;24.10;21.88;;;17.00;99.90;;;;;;5249240;28;20060;-71
2023/05/28 00:22:56;;;;;;;25.55;23.42;;;17.10;99.90;;;;;;5249155;28;20028;-71
2023/05/28 00:25:27;;;;;;;24.58;22.27;;;17.00;99.90;;;;;;5249111;28;20032;-71
2023/05/28 00:27:57;;;;;;;25.23;23.10;;;16.90;99.90;;;;;;5249114;28;20024;-68
2023/05/28 00:30:29;;;;;;;23.98;21.63;;;16.90;99.90;;;;;;5248265;28;20424;-70
2023/05/28 00:33:00;;;;;;;24.42;22.05;;;17.00;99.90;;;;;;5248984;28;20079;-70
2023/05/28 00:35:31;;;;;;;22.48;20.38;;;17.00;99.90;;;;;;5249062;28;20100;-71
2023/05/28 00:38:02;;;;;;;23.38;21.08;;;17.00;99.90;;;;;;5248958;28;20103;-71
2023/05/28 00:40:33;;;;;;;26.08;23.77;;;17.10;99.90;;;;;;5247694;28;20107;-71
2023/05/28 00:43:03;;;;;;;22.70;20.45;;;16.90;99.90;;;;;;5248712;28;20032;-71
2023/05/28 00:45:37;;;;;;;23.13;20.85;;;17.00;99.90;;;;;;5248747;28;20032;-72
2023/05/28 00:48:18;;;;;;;24.15;22.05;;;16.90;99.90;;;;;;5247436;28;20483;-72
2023/05/28 00:50:54;;;;;;;24.80;22.73;;;16.90;99.90;;;;;;5247429;28;20036;-72
2023/05/28 00:53:32;;;;;;;26.88;24.38;;;16.80;99.90;;;;;;5249056;28;20028;-72
2023/05/28 00:56:03;;;;;;;29.60;26.90;;;16.80;99.90;;;;;;5248870;28;20035;-67
2023/05/28 00:58:39;;;;;;;28.25;25.92;;;16.80;99.90;;;;;;5248564;28;20761;-71
2023/05/28 01:01:10;;;;;;;27.83;25.38;;;16.80;99.90;;;;;;5248608;28;20060;-70
2023/05/28 01:03:41;;;;;;;27.15;24.17;;;16.70;99.90;;;;;;5248497;28;20090;-70
2023/05/28 01:06:14;;;;;;;27.52;24.80;;;16.80;99.90;;;;;;5248454;28;20449;-71
2023/05/28 01:08:45;;;;;;;28.88;26.15;;;16.70;99.90;;;;;;5248308;28;20130;-69
2023/05/28 01:11:18;;;;;;;27.05;24.63;;;16.70;99.90;;;;;;5248357;28;20081;-70
2023/05/28 01:13:49;;;;;;;27.63;24.90;;;16.80;99.90;;;;;;5248346;28;20085;-70
2023/05/28 01:16:21;;;;;;;27.67;25.08;;;16.80;99.90;;;;;;5247031;28;20032;-71
2023/05/28 01:18:55;;;;;;;28.17;25.38;;;16.70;99.90;;;;;;5247993;28;20035;-70
2023/05/28 01:21:30;;;;;;;29.90;26.95;;;16.70;99.90;;;;;;5247988;28;20028;-71
2023/05/28 01:24:01;;;;;;;27.48;24.80;;;16.70;99.90;;;;;;5248035;28;20040;-68
2023/05/28 01:26:33;;;;;;;29.67;26.73;;;16.70;99.90;;;;;;5247881;28;20028;-71
2023/05/28 01:29:15;;;;;;;29.50;26.40;;;16.80;99.90;;;;;;5247672;28;20038;-69
2023/05/28 01:31:45;;;;;;;29.30;26.45;;;16.70;99.90;;;;;;5247803;28;20068;-71
2023/05/28 01:34:16;;;;;;;30.02;26.98;;;16.80;99.90;;;;;;5247875;28;20060;-71
2023/05/28 01:36:57;;;;;;;29.92;27.38;;;16.70;99.90;;;;;;5247781;28;20021;-71
2023/05/28 01:39:38;;;;;;;30.33;27.48;;;16.60;99.90;;;;;;5247720;28;20021;-71
2023/05/28 01:42:10;;;;;;;29.25;26.27;;;16.60;99.90;;;;;;5247084;28;20025;-70
2023/05/28 01:44:42;;;;;;;30.17;27.45;;;16.70;99.90;;;;;;5247515;28;20124;-71
2023/05/28 01:47:14;;;;;;;29.58;26.48;;;16.60;99.90;;;;;;5247635;28;20032;-69
2023/05/28 01:49:45;;;;;;;30.13;27.02;;;16.70;99.90;;;;;;5247553;28;20024;-71
2023/05/28 01:52:16;;;;;;;28.85;26.00;;;16.70;99.90;;;;;;5247511;28;20032;-71
2023/05/28 01:54:47;;;;;;;30.40;27.40;;;16.70;99.90;;;;;;5247294;28;20364;-67
2023/05/28 01:57:18;;;;;;;32.85;29.65;;;16.60;99.90;;;;;;5247487;28;20066;-70
2023/05/28 01:59:49;;;;;;;31.33;28.40;;;16.60;99.90;;;;;;5247392;28;20051;-70
2023/05/28 02:02:25;;;;;;;32.20;29.13;;;16.70;99.90;;;;;;5247394;28;20066;-70
2023/05/28 02:04:56;;;;;;;31.73;28.33;;;16.60;99.90;;;;;;5247428;28;20357;-71
2023/05/28 02:07:27;;;;;;;33.13;30.00;;;16.60;99.90;;;;;;5247303;28;20032;-70
2023/05/28 02:09:58;;;;;;;31.60;28.70;;;16.60;99.90;;;;;;5247343;28;20027;-67
2023/05/28 02:12:29;;;;;;;31.05;27.90;;;16.60;99.90;;;;;;5247604;28;20025;-71
2023/05/28 02:15:00;;;;;;;29.00;26.20;;;16.70;99.90;;;;;;5247466;28;20480;-71
2023/05/28 02:17:31;;;;;;;28.40;25.75;;;16.70;99.90;;;;;;5247324;28;20017;-71
2023/05/28 02:20:02;;;;;;;28.58;25.98;;;16.80;99.90;;;;;;5247275;28;20032;-71
2023/05/28 02:22:33;;;;;;;29.35;26.55;;;16.70;99.90;;;;;;5247200;28;20484;-71
2023/05/28 02:25:05;;;;;;;28.75;26.15;;;16.70;99.90;;;;;;5246984;28;20121;-71
2023/05/28 02:27:35;;;;;;;28.30;25.67;;;16.80;99.90;;;;;;5247101;28;20107;-71
2023/05/28 02:30:07;;;;;;;30.05;27.35;;;16.70;99.90;;;;;;5246922;28;20057;-71
2023/05/28 02:32:38;;;;;;;28.13;25.70;;;16.80;99.90;;;;;;5247143;28;20020;-70
2023/05/28 02:35:09;;;;;;;31.45;28.20;;;16.80;99.90;;;;;;5247087;28;20540;-70
2023/05/28 02:37:40;;;;;;;28.38;25.88;;;16.90;99.90;;;;;;5246916;28;20082;-71
2023/05/28 02:40:11;;;;;;;28.65;25.85;;;16.80;99.90;;;;;;5247092;28;20012;-71
2023/05/28 02:42:43;;;;;;;28.55;25.98;;;16.90;99.90;;;;;;5245674;28;20029;-71
2023/05/28 02:45:14;;;;;;;27.48;25.05;;;16.90;99.90;;;;;;5246788;28;20029;-71
2023/05/28 02:47:45;;;;;;;29.05;26.55;;;16.90;99.90;;;;;;5246934;28;20059;-71
2023/05/28 02:50:16;;;;;;;28.80;25.92;;;16.90;99.90;;;;;;5246843;28;20055;-70
2023/05/28 02:52:46;;;;;;;30.77;27.85;;;16.90;99.90;;;;;;5249267;28;20028;-70
2023/05/28 02:55:17;;;;;;;30.20;27.50;;;16.80;99.90;;;;;;5249746;28;20127;-69
2023/05/28 02:57:48;;;;;;;30.73;27.48;;;16.90;99.90;;;;;;5250775;28;20028;-70
2023/05/28 03:00:19;;;;;;;32.72;29.42;;;16.90;99.90;;;;;;5250923;28;20554;-71
2023/05/28 03:02:50;;;;;;;31.77;28.85;;;17.00;99.90;;;;;;5250629;28;20037;-71
2023/05/28 03:05:22;;;;;;;31.27;28.42;;;16.90;99.90;;;;;;5250697;28;20090;-71
2023/05/28 03:07:53;;;;;;;28.83;26.17;;;16.90;99.90;;;;;;5250676;28;20044;-71
2023/05/28 03:10:24;;;;;;;29.17;26.42;;;16.80;99.90;;;;;;5249490;28;20086;-71
2023/05/28 03:12:55;;;;;;;26.77;23.98;;;16.80;99.90;;;;;;5250764;28;20021;-71
2023/05/28 03:15:26;;;;;;;28.67;26.27;;;16.80;99.90;;;;;;5250453;28;20060;-70
2023/05/28 03:17:57;;;;;;;29.20;26.52;;;16.90;99.90;;;;;;5250593;28;20017;-71
2023/05/28 03:20:28;;;;;;;27.75;25.33;;;16.80;99.90;;;;;;5250495;28;20039;-71
2023/05/28 03:23:00;;;;;;;28.25;25.88;;;16.80;99.90;;;;;;5250690;28;20060;-69
2023/05/28 03:25:31;;;;;;;28.92;26.35;;;16.90;99.90;;;;;;5250568;28;20032;-71
2023/05/28 03:28:01;;;;;;;28.88;26.55;;;16.90;99.90;;;;;;5250456;28;20481;-71
2023/05/28 03:30:32;;;;;;;27.65;25.42;;;16.90;99.90;;;;;;5249963;28;20511;-71
2023/05/28 03:33:03;;;;;;;28.05;25.77;;;16.90;99.90;;;;;;5250309;28;20487;-71
2023/05/28 03:35:34;;;;;;;28.05;25.65;;;16.70;99.90;;;;;;5250277;28;20040;-71
2023/05/28 03:38:05;;;;;;;28.92;26.77;;;16.60;99.90;;;;;;5250147;28;20020;-71
2023/05/28 03:40:36;;;;;;;32.97;30.38;;;16.70;99.90;;;;;;5250189;28;20027;-71
2023/05/28 03:43:07;;;;;;;33.15;30.27;;;16.60;99.90;;;;;;5250069;28;20021;-71
2023/05/28 03:45:38;;;;;;;31.77;29.52;;;16.60;99.90;;;;;;5249950;28;20349;-71
2023/05/28 03:48:10;;;;;;;31.67;29.15;;;16.70;99.90;;;;;;5248707;28;20055;-71
2023/05/28 03:50:41;;;;;;;34.47;31.88;;;16.60;99.90;;;;;;5250001;28;20128;-71
2023/05/28 03:53:12;;;;;;;31.77;29.20;;;16.60;99.90;;;;;;5249915;28;20131;-71
2023/05/28 03:55:43;;;;;;;36.22;33.17;;;16.70;99.90;;;;;;5249754;28;20027;-70
2023/05/28 03:58:15;;;;;;;35.97;32.80;;;16.80;99.90;;;;;;5249758;28;20021;-71
2023/05/28 04:00:46;;;;;;;35.80;32.55;;;16.80;99.90;;;;;;5249638;28;20028;-71
2023/05/28 04:03:17;;;;;;;35.83;32.97;;;16.90;99.90;;;;;;5248663;28;20028;-71
2023/05/28 04:05:48;;;;;;;33.45;30.85;;;16.90;99.90;;;;;;5249473;28;20081;-67
2023/05/28 04:08:19;;;;;;;31.10;28.45;;;17.00;99.90;;;;;;5249721;28;20048;-71
2023/05/28 04:10:50;;;;;;;28.58;26.27;;;17.00;99.90;;;;;;5249495;28;20032;-70
2023/05/28 04:13:23;;;;;;;32.38;28.98;;;16.90;99.90;;;;;;5249308;28;20017;-71
2023/05/28 04:15:54;;;;;;;31.85;29.13;;;16.90;99.90;;;;;;5249371;28;20036;-71
2023/05/28 04:18:26;;;;;;;33.83;31.00;;;17.00;99.90;;;;;;5249003;28;20077;-71
2023/05/28 04:20:57;;;;;;;31.80;29.35;;;17.00;99.90;;;;;;5249330;28;20025;-71
2023/05/28 04:23:28;;;;;;;31.70;28.85;;;17.10;99.90;;;;;;5249139;28;20099;-71
2023/05/28 04:25:59;;;;;;;29.15;26.77;;;17.00;99.90;;;;;;5249291;28;20043;-71
2023/05/28 04:28:31;;;;;;;31.40;28.55;;;17.00;99.90;;;;;;5249064;28;20013;-71
2023/05/28 04:31:03;;;;;;;29.65;26.83;;;17.10;99.90;;;;;;5249112;28;20057;-71
2023/05/28 04:33:36;;;;;;;28.23;25.88;;;17.00;99.90;;;;;;5249215;28;20547;-68
2023/05/28 04:36:13;;;;;;;31.13;28.70;;;17.00;99.90;;;;;;5249360;28;20115;-71
2023/05/28 04:38:45;;;;;;;29.05;26.48;;;17.20;99.90;;;;;;5248054;28;20543;-71
2023/05/28 04:41:16;;;;;;;26.17;23.88;;;17.20;99.90;;;;;;5249120;28;20089;-70
2023/05/28 04:43:48;;;;;;;25.98;23.77;;;17.20;99.90;;;;;;5248787;28;20024;-71
2023/05/28 04:46:19;;;;;;;25.60;23.27;;;17.10;99.90;;;;;;5248928;28;20028;-70
2023/05/28 04:48:50;;;;;;;26.83;24.40;;;17.20;99.90;;;;;;5248909;28;20106;-71
2023/05/28 04:51:21;;;;;;;26.25;24.08;;;17.30;99.90;;;;;;5248808;28;20033;-71
2023/05/28 04:53:52;;;;;;;29.73;27.30;;;17.20;99.90;;;;;;5248476;28;20021;-70
2023/05/28 04:56:22;;;;;;;29.77;26.98;;;17.30;99.90;;;;;;5248609;28;20025;-67
2023/05/28 04:58:54;;;;;;;26.85;24.52;;;17.40;99.90;;;;;;5248372;28;20025;-71
2023/05/28 05:01:25;;;;;;;27.52;25.33;;;17.40;99.90;;;;;;5248570;28;20032;-70
2023/05/28 05:03:56;;;;;;;26.50;24.48;;;17.40;99.90;;;;;;5248324;28;20186;-70
2023/05/28 05:06:26;;;;;;;27.50;25.42;;;17.40;99.90;;;;;;5248297;28;20039;-70
2023/05/28 05:08:57;;;;;;;28.80;26.38;;;17.40;99.90;;;;;;5248343;28;20102;-71
2023/05/28 05:11:28;;;;;;;29.05;26.85;;;17.40;99.90;;;;;;5248261;28;20043;-71
2023/05/28 05:13:59;;;;;;;30.35;28.08;;;17.40;99.90;;;;;;5248398;28;20036;-70
2023/05/28 05:16:30;;;;;;;30.63;28.15;;;17.50;99.90;;;;;;5247959;28;20036;-71
2023/05/28 05:19:01;;;;;;;27.98;25.65;;;17.40;99.90;;;;;;5248125;28;20361;-71
2023/05/28 05:21:32;;;;;;;27.45;25.20;;;17.40;99.90;;;;;;5248128;28;20029;-71
2023/05/28 05:24:03;;;;;;;30.08;27.55;;;17.40;99.90;;;;;;5247854;28;20028;-71
2023/05/28 05:26:34;;;;;;;28.67;26.08;;;17.40;99.90;;;;;;5247846;28;20095;-71
2023/05/28 05:29:04;;;;;;;29.40;26.77;;;17.40;99.90;;;;;;5247611;28;20036;-70
2023/05/28 05:31:35;;;;;;;28.00;25.55;;;17.30;99.90;;;;;;5241171;28;20110;-70
2023/05/28 05:34:06;;;;;;;27.58;24.95;;;17.40;99.90;;;;;;5228102;28;20036;-68
2023/05/28 05:36:37;;;;;;;27.00;24.73;;;17.40;99.90;;;;;;5227182;28;20449;-71
2023/05/28 05:39:08;;;;;;;27.95;25.55;;;17.50;99.90;;;;;;5227224;28;20025;-70
2023/05/28 05:41:39;;;;;;;25.52;23.40;;;17.50;99.90;;;;;;5227242;28;20025;-70
2023/05/28 05:44:10;;;;;;;26.73;24.55;;;17.50;99.90;;;;;;5226954;28;20355;-70
2023/05/28 05:46:41;;;;;;;27.90;25.48;;;17.50;99.90;;;;;;5226797;28;20036;-71
2023/05/28 05:49:12;;;;;;;29.02;26.70;;;17.60;99.90;;;;;;5227013;28;20028;-69
2023/05/28 05:51:43;;;;;;;27.52;25.23;;;17.70;99.90;;;;;;5227090;28;20032;-71
2023/05/28 05:54:13;;;;;;;26.88;24.52;;;17.70;99.90;;;;;;5226864;28;20076;-71
2023/05/28 05:56:44;;;;;;;27.23;24.92;;;17.70;99.90;;;;;;5226856;28;20033;-69
2023/05/28 05:59:15;;;;;;;27.55;25.15;;;17.70;99.90;;;;;;5226654;28;20477;-71
2023/05/28 06:01:46;;;;;;;26.95;24.90;;;17.70;99.90;;;;;;5226716;28;20036;-67
2023/05/28 06:04:17;;;;;;;24.30;22.13;;;17.80;99.90;;;;;;5226601;28;20036;-67
2023/05/28 06:06:48;;;;;;;25.92;23.33;;;17.80;99.90;;;;;;5226735;28;20372;-67
2023/05/28 06:09:19;;;;;;;24.98;22.73;;;17.80;99.90;;;;;;5225391;28;20056;-70
2023/05/28 06:11:50;;;;;;;24.15;22.23;;;17.90;99.90;;;;;;5226655;28;20072;-71
2023/05/28 06:14:21;;;;;;;25.15;22.85;;;17.80;99.90;;;;;;5226762;28;20025;-71
2023/05/28 06:16:52;;;;;;;24.85;22.80;;;17.90;99.90;;;;;;5226602;28;20040;-70
2023/05/28 06:19:23;;;;;;;24.77;22.75;;;17.90;99.90;;;;;;5226517;28;20319;-71
2023/05/28 06:21:55;;;;;;;24.63;22.38;;;18.00;99.90;;;;;;5226698;28;20025;-70
2023/05/28 06:24:26;;;;;;;26.02;23.63;;;17.90;99.90;;;;;;5226297;28;20029;-71
2023/05/28 06:26:57;;;;;;;26.63;24.35;;;17.90;99.90;;;;;;5225970;28;20036;-70
2023/05/28 06:29:28;;;;;;;24.88;22.65;;;17.90;99.90;;;;;;5226078;28;20554;-69
2023/05/28 06:31:59;;;;;;;22.75;20.55;;;18.00;99.90;;;;;;5226586;28;20025;-70
2023/05/28 06:34:30;;;;;;;22.23;20.23;;;18.00;99.90;;;;;;5225216;28;20029;-70
2023/05/28 06:37:01;;;;;;;26.83;24.38;;;18.20;99.90;;;;;;5226384;28;20060;-70
2023/05/28 06:39:32;;;;;;;23.67;21.58;;;18.10;99.90;;;;;;5226064;28;20013;-68
2023/05/28 06:42:03;;;;;;;22.00;20.20;;;18.20;99.90;;;;;;5226294;28;20029;-71
2023/05/28 06:44:34;;;;;;;23.92;21.80;;;18.20;99.90;;;;;;5226217;28;20504;-70
2023/05/28 06:47:05;;;;;;;24.80;22.50;;;18.30;99.90;;;;;;5226192;28;20068;-70
2023/05/28 06:49:36;;;;;;;23.67;21.88;;;18.30;99.90;;;;;;5226049;28;20489;-71
2023/05/28 06:52:07;;;;;;;22.70;20.80;;;18.30;99.90;;;;;;5226165;28;20017;-67
2023/05/28 06:54:38;;;;;;;22.80;20.15;;;18.20;99.90;;;;;;5225946;28;20083;-68
2023/05/28 06:57:08;;;;;;;25.85;23.35;;;18.00;99.90;;;;;;5224774;28;20025;-69
2023/05/28 06:59:39;;;;;;;22.42;20.15;;;18.00;99.90;;;;;;5226140;28;20075;-70
2023/05/28 07:02:10;;;;;;;23.15;20.95;;;17.90;99.90;;;;;;5226001;28;20020;-70
2023/05/28 07:04:41;;;;;;;24.00;21.60;;;17.90;99.90;;;;;;5225905;28;20049;-70
2023/05/28 07:07:12;;;;;;;22.50;20.45;;;17.90;99.90;;;;;;5226108;28;20017;-71
2023/05/28 07:09:43;;;;;;;23.38;21.52;;;17.90;99.90;;;;;;5226208;28;20039;-67
2023/05/28 07:12:14;;;;;;;23.92;21.60;;;17.90;99.90;;;;;;5226105;28;20025;-71
2023/05/28 07:14:45;;;;;;;21.73;19.80;;;18.00;99.90;;;;;;5226080;28;20461;-70
2023/05/28 07:17:16;;;;;;;21.90;20.20;;;18.00;99.90;;;;;;5226053;28;20017;-71
2023/05/28 07:19:47;;;;;;;19.98;18.50;;;17.80;99.90;;;;;;5225962;28;20033;-70
2023/05/28 07:22:18;;;;;;;20.75;18.90;;;17.80;99.90;;;;;;5225912;28;20075;-71
2023/05/28 07:24:49;;;;;;;21.30;19.50;;;17.70;99.90;;;;;;5225744;28;20037;-67
2023/05/28 07:27:20;;;;;;;19.88;18.10;;;17.80;99.90;;;;;;5225787;28;20025;-71
2023/05/28 07:29:51;;;;;;;21.55;19.55;;;17.80;99.90;;;;;;5225434;28;20049;-71
2023/05/28 07:32:21;;;;;;;24.80;22.30;;;17.70;99.90;;;;;;5225869;28;20029;-67
2023/05/28 07:34:52;;;;;;;24.30;21.92;;;17.70;99.90;;;;;;5225798;28;20075;-70
2023/05/28 07:37:23;;;;;;;26.58;22.65;;;17.70;99.90;;;;;;5225814;28;20489;-71
2023/05/28 07:39:54;;;;;;;24.88;22.35;;;17.80;99.90;;;;;;5228091;28;20022;-67
2023/05/28 07:42:25;;;;;;;25.05;22.88;;;17.70;99.90;;;;;;5229450;28;20052;-70
2023/05/28 07:44:55;;;;;;;25.35;23.02;;;17.80;99.90;;;;;;5229219;28;20048;-71
2023/05/28 07:47:26;;;;;;;25.10;22.80;;;17.70;99.90;;;;;;5229326;28;20488;-70
2023/05/28 07:49:57;;;;;;;27.20;24.77;;;17.70;99.90;;;;;;5229167;28;20033;-71
2023/05/28 07:52:29;;;;;;;25.80;23.42;;;17.70;99.90;;;;;;5229280;28;20040;-71
2023/05/28 07:55:00;;;;;;;25.17;22.60;;;17.70;99.90;;;;;;5229171;28;20028;-68
2023/05/28 07:57:31;;;;;;;25.98;23.73;;;17.60;99.90;;;;;;5227631;28;20380;-70
2023/05/28 08:00:06;;;;;;;26.90;24.15;;;17.70;99.90;;;;;;5228909;28;20494;-67
2023/05/28 08:02:37;;;;;;;25.98;23.42;;;17.80;99.90;;;;;;5229026;28;20021;-71
2023/05/28 08:05:08;;;;;;;23.83;21.75;;;17.80;99.90;;;;;;5228885;28;20082;-67
2023/05/28 08:07:39;;;;;;;26.35;23.92;;;17.80;99.90;;;;;;5229215;28;20017;-71
2023/05/28 08:10:11;;;;;;;26.45;23.90;;;17.90;99.90;;;;;;5228920;28;20029;-70
2023/05/28 08:12:41;;;;;;;25.10;22.80;;;17.90;99.90;;;;;;5228784;28;20025;-70
2023/05/28 08:15:12;;;;;;;25.02;22.65;;;17.90;99.90;;;;;;5229010;28;20376;-67
2023/05/28 08:17:43;;;;;;;23.88;21.75;;;17.80;99.90;;;;;;5228720;28;20021;-68
2023/05/28 08:20:14;;;;;;;25.67;23.10;;;17.80;99.90;;;;;;5228976;28;20451;-69
2023/05/28 08:22:45;;;;;;;25.63;23.33;;;17.90;99.90;;;;;;5242508;28;20033;-71
2023/05/28 08:25:16;;;;;;;24.73;22.42;;;17.80;99.90;;;;;;5247525;28;20601;-71
2023/05/28 08:27:47;;;;;;;26.13;23.63;;;17.90;99.90;;;;;;5248467;28;20099;-68
2023/05/28 08:30:18;;;;;;;25.90;23.52;;;17.90;99.90;;;;;;5248712;28;20052;-71
2023/05/28 08:32:48;;;;;;;26.00;23.65;;;18.00;99.90;;;;;;5249245;28;20103;-70
2023/05/28 08:35:19;;;;;;;27.63;25.33;;;17.90;99.90;;;;;;5248294;28;20158;-69
2023/05/28 08:37:51;;;;;;;27.70;25.42;;;18.00;99.90;;;;;;5248833;28;20062;-70
2023/05/28 08:40:22;;;;;;;28.10;25.33;;;18.00;99.90;;;;;;5249116;28;20103;-71
2023/05/28 08:42:53;;;;;;;28.38;25.63;;;17.90;99.90;;;;;;5248989;28;20155;-71
2023/05/28 08:45:24;;;;;;;29.27;26.52;;;17.90;99.90;;;;;;5244012;28;20048;-68
2023/05/28 08:47:55;;;;;;;30.48;27.70;;;17.90;99.90;;;;;;5248047;28;20376;-70
2023/05/28 08:50:28;;;;;;;30.23;27.00;;;18.00;99.90;;;;;;5248350;28;20036;-68
2023/05/28 08:53:01;;;;;;;26.20;23.92;;;18.10;99.90;;;;;;5248693;28;20111;-71
2023/05/28 08:55:33;;;;;;;28.50;25.73;;;18.30;99.90;;;;;;5248582;28;20013;-71
2023/05/28 08:58:04;;;;;;;25.58;23.38;;;18.50;99.90;;;;;;5248558;28;20110;-70
2023/05/28 09:00:36;;;;;;;27.63;24.85;;;18.50;99.90;;;;;;5248599;28;20500;-71
2023/05/28 09:03:07;;;;;;;27.55;25.05;;;18.80;99.90;;;;;;5248390;28;20098;-71
2023/05/28 09:05:39;;;;;;;28.50;26.05;;;18.70;99.90;;;;;;5248413;28;20029;-70
2023/05/28 09:08:10;;;;;;;28.00;25.42;;;18.70;99.90;;;;;;5248368;28;20032;-72
2023/05/28 09:10:41;;;;;;;25.83;23.52;;;18.70;99.90;;;;;;5248430;28;20067;-72
2023/05/28 09:13:12;;;;;;;23.75;21.65;;;18.50;99.90;;;;;;5248233;28;20052;-67
2023/05/28 09:15:43;;;;;;;22.30;20.15;;;18.40;99.90;;;;;;5248146;28;20084;-71
2023/05/28 09:18:20;;;;;;;22.95;20.90;;;18.40;99.90;;;;;;5248137;28;20029;-71
2023/05/28 09:20:51;;;;;;;22.65;20.25;;;18.50;99.90;;;;;;5248260;28;20034;-72
2023/05/28 09:23:24;;;;;;;23.95;21.85;;;18.50;99.90;;;;;;5247991;28;20489;-67
2023/05/28 09:26:00;;;;;;;24.02;21.83;;;18.60;99.90;;;;;;5240814;28;20033;-69
2023/05/28 09:28:31;;;;;;;23.02;21.13;;;18.60;99.90;;;;;;5227154;28;20028;-72
2023/05/28 09:31:05;;;;;;;24.80;22.45;;;18.50;99.90;;;;;;5227112;28;20435;-70
2023/05/28 09:33:42;;;;;;;22.73;20.58;;;18.50;99.90;;;;;;5227069;28;20351;-72
2023/05/28 09:36:17;;;;;;;23.27;20.85;;;18.50;99.90;;;;;;5227156;28;20031;-67
2023/05/28 09:38:48;;;;;;;22.80;20.75;;;18.40;99.90;;;;;;5227069;28;20101;-68
2023/05/28 09:41:24;;;;;;;19.77;18.15;;;18.50;99.90;;;;;;5227203;28;20508;-72
2023/05/28 09:44:00;;;;;;;23.55;21.60;;;18.60;99.90;;;;;;5227081;28;20079;-70
2023/05/28 09:46:32;;;;;;;21.25;19.52;;;18.50;99.90;;;;;;5226989;28;20480;-67
2023/05/28 09:49:04;;;;;;;22.20;20.27;;;18.50;99.90;;;;;;5227236;28;20376;-71
2023/05/28 09:51:36;;;;;;;28.85;25.65;;;18.60;99.90;;;;;;5227005;28;20048;-70
2023/05/28 09:54:08;;;;;;;30.35;26.48;;;18.50;99.90;;;;;;5226934;28;20024;-71
2023/05/28 09:56:41;;;;;;;24.42;22.13;;;18.40;99.90;;;;;;5226945;28;20083;-72
2023/05/28 09:59:17;;;;;;;23.48;21.20;;;18.30;99.90;;;;;;5229230;28;20060;-66
2023/05/28 10:01:54;;;;;;;23.67;21.50;;;18.30;99.90;;;;;;5226094;28;20529;-69
2023/05/28 10:04:34;;;;;;;23.27;20.98;;;18.20;99.90;;;;;;5226357;28;20638;-71
2023/05/28 10:07:05;;;;;;;24.80;22.40;;;18.20;99.90;;;;;;5226491;28;20024;-72
2023/05/28 10:09:39;;;;;;;23.58;21.17;;;18.30;99.90;;;;;;5226529;28;20331;-71
2023/05/28 10:12:17;;;;;;;24.73;22.15;;;18.20;99.90;;;;;;5226575;28;20040;-72
2023/05/28 10:14:50;;;;;;;28.23;25.05;;;18.10;99.90;;;;;;5226565;28;20028;-73
2023/05/28 10:17:21;;;;;;;24.52;22.08;;;18.10;99.90;;;;;;5226340;28;20036;-72
2023/05/28 10:19:52;;;;;;;23.65;20.85;;;18.00;99.90;;;;;;5226535;28;20029;-72
2023/05/28 10:22:23;;;;;;;23.90;21.45;;;17.90;99.90;;;;;;5226537;28;20021;-72
2023/05/28 10:24:55;;;;;;;22.27;20.33;;;18.00;99.90;;;;;;5226301;28;20175;-72
2023/05/28 10:27:32;;;;;;;26.20;23.45;;;18.00;99.90;;;;;;5226402;28;20029;-72
2023/05/28 10:30:04;;;;;;;25.48;22.70;;;18.10;99.90;;;;;;5226159;28;20130;-71
2023/05/28 10:32:42;;;;;;;24.55;22.02;;;18.30;99.90;;;;;;5226532;28;20061;-71
2023/05/28 10:35:12;;;;;;;24.27;22.08;;;18.30;99.90;;;;;;5226326;28;20078;-67
2023/05/28 10:37:44;;;;;;;25.45;23.20;;;18.20;99.90;;;;;;5244657;28;20439;-72
2023/05/28 10:40:24;;;;;;;25.80;23.42;;;18.10;99.90;;;;;;5246895;28;20494;-71
2023/05/28 10:42:55;;;;;;;25.33;23.05;;;18.00;99.90;;;;;;5246226;28;20036;-71
2023/05/28 10:45:36;;;;;;;24.65;22.17;;;18.00;99.90;;;;;;5246345;28;20036;-67
2023/05/28 10:48:07;;;;;;;22.75;20.77;;;18.10;99.90;;;;;;5247024;28;20028;-67
2023/05/28 10:50:57;;;;;;;26.30;24.13;;;17.90;99.90;;;;;;5247186;28;20028;-67
2023/05/28 10:53:28;;;;;;;24.00;21.88;;;18.10;99.90;;;;;;5246948;28;20020;-72
2023/05/28 10:56:01;;;;;;;24.98;22.58;;;18.10;99.90;;;;;;5247028;28;20021;-68
2023/05/28 10:58:36;;;;;;;21.70;19.60;;;18.20;99.90;;;;;;5246664;28;20372;-70
2023/05/28 11:01:10;;;;;;;25.15;23.05;;;18.20;99.90;;;;;;5246938;28;20029;-67
2023/05/28 11:03:45;;;;;;;27.60;25.08;;;18.20;99.90;;;;;;5246862;28;20123;-69
2023/05/28 11:06:16;;;;;;;25.45;23.17;;;18.20;99.90;;;;;;5246940;28;20025;-67
2023/05/28 11:08:48;;;;;;;25.52;23.15;;;18.20;99.90;;;;;;5246855;28;20035;-71
2023/05/28 11:11:20;;;;;;;24.38;22.23;;;18.30;99.90;;;;;;5246842;28;20426;-72
2023/05/28 11:13:51;;;;;;;22.88;20.77;;;18.50;99.90;;;;;;5249120;28;20428;-70
2023/05/28 11:16:22;;;;;;;25.55;23.48;;;18.70;99.90;;;;;;5250558;28;20021;-71
2023/05/28 11:19:04;;;;;;;27.40;24.80;;;18.90;99.90;;;;;;5250381;28;20024;-71
2023/05/28 11:21:52;;;;;;;25.65;23.27;;;19.20;99.90;;;;;;5250495;28;20119;-71
2023/05/28 11:24:23;;;;;;;23.83;21.90;;;19.40;99.90;;;;;;5250283;28;20035;-71
2023/05/28 11:26:54;;;;;;;20.10;18.35;;;19.50;99.90;;;;;;5249720;28;20028;-70
2023/05/28 11:29:25;;;;;;;20.48;18.65;;;19.50;99.90;;;;;;5249100;28;20500;-69
2023/05/28 11:31:58;;;;;;;18.52;16.85;;;19.30;99.90;;;;;;5249278;28;20040;-70
2023/05/28 11:34:29;;;;;;;20.70;18.90;;;19.20;99.90;;;;;;5249237;28;20096;-71
2023/05/28 11:37:00;;;;;;;23.88;21.83;;;19.10;99.90;;;;;;5248005;28;20492;-69
2023/05/28 11:39:30;;;;;;;23.55;21.25;;;19.00;99.90;;;;;;5249184;28;20028;-71
2023/05/28 11:42:01;;;;;;;24.17;21.95;;;19.00;99.90;;;;;;5249084;28;20354;-71
2023/05/28 11:44:32;;;;;;;29.77;26.90;;;18.90;99.90;;;;;;5249459;28;20494;-71
2023/05/28 11:47:04;;;;;;;28.77;25.90;;;18.70;99.90;;;;;;5250004;28;20028;-71
2023/05/28 11:49:37;;;;;;;27.88;25.35;;;18.90;99.90;;;;;;5248344;28;20036;-71
2023/05/28 11:52:15;;;;;;;26.92;24.75;;;19.10;99.90;;;;;;5249676;28;20020;-71
2023/05/28 11:54:57;;;;;;;26.35;23.92;;;19.10;99.90;;;;;;5249829;28;20411;-71
2023/05/28 11:57:36;;;;;;;22.73;20.63;;;19.40;99.90;;;;;;5243950;28;20111;-69
2023/05/28 12:00:11;;;;;;;24.88;22.42;;;19.60;99.90;;;;;;5248743;28;20053;-71
2023/05/28 12:02:49;;;;;;;23.70;21.48;;;19.60;99.90;;;;;;5229336;28;20024;-71
2023/05/28 12:05:20;;;;;;;26.45;24.30;;;19.60;99.90;;;;;;5246419;28;20476;-71
2023/05/28 12:07:54;;;;;;;26.23;23.77;;;19.70;99.90;;;;;;5249072;28;20028;-71
2023/05/28 12:10:27;;;;;;;26.55;24.02;;;19.60;99.90;;;;;;5249668;28;20680;-71
2023/05/28 12:13:00;;;;;;;29.27;26.60;;;19.50;99.90;;;;;;5249524;28;20021;-71
2023/05/28 12:15:32;;;;;;;29.10;26.52;;;19.40;99.90;;;;;;5249506;28;20029;-71
2023/05/28 12:18:04;;;;;;;29.02;26.60;;;19.30;99.90;;;;;;5249363;28;20027;-71
2023/05/28 12:20:41;;;;;;;27.00;24.70;;;19.30;99.90;;;;;;5248269;28;20480;-71
2023/05/28 12:23:13;;;;;;;26.63;24.25;;;19.10;99.90;;;;;;5249163;28;20111;-71
2023/05/28 12:25:43;;;;;;;27.20;24.92;;;19.00;99.90;;;;;;5248433;28;20029;-71
2023/05/28 12:28:19;;;;;;;26.27;24.17;;;18.80;99.90;;;;;;5249169;28;20035;-71
2023/05/28 12:30:52;;;;;;;28.75;26.42;;;18.60;99.90;;;;;;5249099;28;20040;-67
2023/05/28 12:33:24;;;;;;;27.30;25.10;;;18.60;99.90;;;;;;5249163;28;20453;-71
2023/05/28 12:35:56;;;;;;;25.70;23.60;;;18.60;99.90;;;;;;5249083;28;20043;-71
2023/05/28 12:38:27;;;;;;;26.23;24.10;;;18.50;99.90;;;;;;5248940;28;20025;-71
2023/05/28 12:40:59;;;;;;;26.20;24.33;;;18.40;99.90;;;;;;5249052;28;20021;-66
2023/05/28 12:43:30;;;;;;;25.60;23.25;;;18.40;99.90;;;;;;5248875;28;20540;-70
2023/05/28 12:46:00;;;;;;;24.40;22.40;;;18.50;99.90;;;;;;5248847;28;20103;-71
2023/05/28 12:48:31;;;;;;;26.13;23.55;;;18.20;99.90;;;;;;5248821;28;20107;-66
2023/05/28 12:51:03;;;;;;;25.33;23.33;;;18.30;99.90;;;;;;5248702;28;20192;-69